Time;durP1;ratioP1;P1;durP2;ratioP2;P2;SDS_P1;SDS_P2;PMS_P1;PMS_P2;Temp;Humidity;BMP_temperature;BMP_pressure;BME280_temperature;BME280_humidity;BME280_pressure;Samples;Min_cycle;Max_cycle;Signal;HPM_P1;HPM_P2
2023/05/20 03:00:50;;;;;;;59.53;56.13;;;10.90;99.90;;;;;;5773657;23;20287;-77
2023/05/20 03:03:16;;;;;;;87.40;82.93;;;10.90;99.90;;;;;;4980470;28;20669;-78
2023/05/20 03:05:44;;;;;;;92.13;87.23;;;10.90;99.90;;;;;;4955847;28;20200;-77
2023/05/20 03:08:11;;;;;;;48.23;45.63;;;11.00;99.90;;;;;;4955834;28;20556;-78
2023/05/20 03:10:38;;;;;;;18.50;17.07;;;11.00;99.90;;;;;;4956292;28;20255;-78
2023/05/20 03:15:34;;;;;;;28.07;26.37;;;11.10;99.90;;;;;;5031379;23;20262;-81
2023/05/20 03:18:00;;;;;;;19.93;18.67;;;11.10;99.90;;;;;;4994677;28;20180;-80
2023/05/20 03:20:27;;;;;;;27.97;25.80;;;11.10;99.90;;;;;;4995589;28;20180;-81
2023/05/20 03:22:53;;;;;;;23.57;21.97;;;11.20;99.90;;;;;;4995467;28;20180;-80
2023/05/20 03:25:21;;;;;;;24.30;22.60;;;11.10;99.90;;;;;;4977791;28;20220;-80
2023/05/20 03:27:47;;;;;;;19.23;18.00;;;11.20;99.90;;;;;;4981615;28;20668;-79
2023/05/20 03:30:13;;;;;;;20.33;19.03;;;11.20;99.90;;;;;;4972782;28;20198;-80
2023/05/20 03:32:39;;;;;;;23.63;22.23;;;11.10;99.90;;;;;;4975903;28;20204;-81
2023/05/20 03:35:05;;;;;;;29.70;27.90;;;11.10;99.90;;;;;;4978594;28;20672;-80
2023/05/20 03:37:31;;;;;;;32.00;29.83;;;11.00;99.90;;;;;;4978838;28;20283;-80
2023/05/20 03:39:57;;;;;;;21.67;20.37;;;10.90;99.90;;;;;;4996509;28;20200;-81
2023/05/20 03:42:23;;;;;;;23.60;22.17;;;10.90;99.90;;;;;;4960788;28;20200;-80
2023/05/20 03:44:48;;;;;;;36.13;34.07;;;10.90;99.90;;;;;;4969307;28;20332;-81
2023/05/20 03:47:14;;;;;;;53.97;50.93;;;10.90;99.90;;;;;;4967295;28;20204;-81
2023/05/20 03:49:40;;;;;;;35.23;33.17;;;10.90;99.90;;;;;;4961954;28;20191;-82
2023/05/20 03:52:06;;;;;;;57.93;54.73;;;10.90;99.90;;;;;;4974440;28;20226;-82
2023/05/20 03:54:34;;;;;;;62.73;59.23;;;10.90;99.90;;;;;;4978706;28;20587;-81
2023/05/20 03:56:59;;;;;;;56.77;53.47;;;10.90;99.90;;;;;;4997929;28;20644;-82
2023/05/20 03:59:26;;;;;;;47.60;45.03;;;10.90;99.90;;;;;;4980022;28;20187;-82
2023/05/20 04:01:52;;;;;;;49.23;46.30;;;10.90;99.90;;;;;;4979619;28;20395;-82
2023/05/20 04:04:18;;;;;;;38.60;36.40;;;10.90;99.90;;;;;;4979779;28;20208;-81
2023/05/20 04:06:44;;;;;;;42.50;40.00;;;11.00;99.90;;;;;;4987745;28;20735;-81
2023/05/20 04:09:10;;;;;;;44.33;41.90;;;11.00;99.90;;;;;;5010493;28;20563;-82
2023/05/20 04:11:36;;;;;;;46.87;44.23;;;11.00;99.90;;;;;;4981585;28;20243;-81
2023/05/20 04:14:02;;;;;;;38.40;36.30;;;11.10;99.90;;;;;;4981483;28;20212;-82
2023/05/20 04:16:28;;;;;;;15.53;14.43;;;11.20;99.90;;;;;;4982029;28;20263;-82
2023/05/20 04:18:54;;;;;;;12.20;11.30;;;11.20;99.90;;;;;;4980619;28;20184;-81
2023/05/20 04:21:20;;;;;;;12.63;11.70;;;11.20;99.90;;;;;;4980375;28;20191;-81
2023/05/20 04:23:46;;;;;;;17.63;16.43;;;11.30;99.90;;;;;;4980574;28;20204;-81
2023/05/20 04:26:12;;;;;;;31.87;29.90;;;11.40;99.90;;;;;;4976481;28;20185;-81
2023/05/20 04:28:40;;;;;;;22.40;21.00;;;11.40;99.90;;;;;;4960763;28;20224;-81
2023/05/20 04:31:07;;;;;;;16.00;14.97;;;11.50;99.90;;;;;;4960309;28;20630;-81
2023/05/20 04:33:36;;;;;;;19.97;18.47;;;11.60;99.90;;;;;;4961077;28;20205;-81
2023/05/20 04:36:04;;;;;;;41.20;38.63;;;11.70;99.90;;;;;;4959696;28;20679;-81
2023/05/20 04:38:31;;;;;;;43.40;41.13;;;11.80;99.90;;;;;;4977358;28;20181;-81
2023/05/20 04:40:58;;;;;;;24.10;22.70;;;11.90;99.90;;;;;;4977674;28;20177;-81
2023/05/20 04:43:24;;;;;;;16.83;15.73;;;12.00;99.90;;;;;;4959783;28;20173;-81
2023/05/20 04:45:52;;;;;;;25.67;24.17;;;12.10;99.90;;;;;;4973267;28;20199;-82
2023/05/20 04:48:18;;;;;;;33.13;31.23;;;12.20;99.90;;;;;;4998904;28;20176;-80
2023/05/20 04:50:44;;;;;;;31.83;30.03;;;12.20;99.90;;;;;;4999178;28;20179;-81
2023/05/20 04:53:11;;;;;;;34.67;32.77;;;12.30;99.90;;;;;;4998293;28;20687;-80
2023/05/20 04:55:37;;;;;;;32.17;30.37;;;12.30;99.90;;;;;;4984928;28;20184;-71
2023/05/20 04:58:03;;;;;;;22.50;21.30;;;12.50;99.90;;;;;;4992754;28;20173;-71
2023/05/20 05:00:29;;;;;;;42.83;40.63;;;12.70;99.90;;;;;;4993780;28;20242;-71
2023/05/20 05:02:55;;;;;;;133.47;126.37;;;12.80;99.90;;;;;;4993034;28;20183;-71
2023/05/20 05:05:21;;;;;;;133.40;126.27;;;12.90;99.90;;;;;;4992831;28;20219;-71
2023/05/20 05:07:47;;;;;;;50.43;47.83;;;13.10;99.90;;;;;;4992925;28;20320;-72
2023/05/20 05:10:14;;;;;;;11.37;10.60;;;13.30;99.90;;;;;;4979189;28;20185;-72
2023/05/20 05:12:40;;;;;;;36.30;34.03;;;13.90;99.90;;;;;;4973559;28;20212;-71
2023/05/20 05:15:06;;;;;;;34.73;32.83;;;14.20;99.90;;;;;;4973712;28;20618;-71
2023/05/20 05:17:32;;;;;;;16.87;15.87;;;14.80;99.90;;;;;;4973299;28;20824;-71
2023/05/20 05:19:58;;;;;;;10.20;9.47;;;15.40;99.90;;;;;;4973370;28;20191;-71
2023/05/20 05:22:23;;;;;;;9.40;8.70;;;15.80;99.90;;;;;;4976812;28;20540;-71
2023/05/20 05:24:49;;;;;;;17.77;16.70;;;16.30;99.90;;;;;;4994496;28;20212;-72
2023/05/20 05:27:15;;;;;;;18.43;17.43;;;16.40;99.90;;;;;;4992408;28;20216;-72
2023/05/20 05:29:41;;;;;;;19.07;17.87;;;16.40;99.90;;;;;;4992863;28;20188;-71
2023/05/20 05:32:07;;;;;;;25.13;23.43;;;16.40;99.90;;;;;;4992701;28;20282;-71
2023/05/20 05:34:32;;;;;;;59.80;56.57;;;16.60;99.90;;;;;;4975348;28;20196;-71
2023/05/20 05:36:58;;;;;;;80.27;76.20;;;17.20;99.90;;;;;;4992189;28;20204;-71
2023/05/20 05:39:24;;;;;;;28.37;26.83;;;17.70;99.90;;;;;;4956019;28;20176;-72
2023/05/20 05:41:50;;;;;;;9.43;8.68;;;18.10;99.90;;;;;;4973160;28;20188;-73
2023/05/20 05:44:15;;;;;;;7.47;6.80;;;18.40;99.90;;;;;;4973244;28;20208;-73
2023/05/20 05:46:41;;;;;;;7.13;6.68;;;18.60;99.90;;;;;;4998944;28;20188;-73
2023/05/20 05:49:07;;;;;;;9.02;7.65;;;18.80;99.90;;;;;;5011747;28;20409;-72
2023/05/20 05:51:32;;;;;;;12.88;11.98;;;19.00;99.90;;;;;;5007531;28;20682;-72
2023/05/20 05:53:58;;;;;;;9.70;8.90;;;19.20;99.90;;;;;;4992760;28;20230;-73
2023/05/20 05:56:24;;;;;;;14.70;13.75;;;19.50;99.90;;;;;;4992588;28;20188;-73
2023/05/20 05:58:50;;;;;;;20.30;18.98;;;19.80;99.90;;;;;;4975071;28;20180;-73
2023/05/20 06:01:15;;;;;;;18.35;17.23;;;19.80;99.90;;;;;;4995066;28;20232;-73
2023/05/20 06:03:41;;;;;;;12.75;11.95;;;20.00;99.90;;;;;;4993509;28;20224;-72
2023/05/20 06:06:07;;;;;;;10.75;10.02;;;20.20;99.90;;;;;;4960960;28;20173;-73
2023/05/20 06:08:33;;;;;;;14.73;13.82;;;20.50;99.90;;;;;;4984355;28;20218;-73
2023/05/20 06:10:58;;;;;;;17.50;16.50;;;20.90;99.90;;;;;;4972833;28;20568;-73
2023/05/20 06:13:24;;;;;;;21.67;20.23;;;20.80;99.90;;;;;;4972675;28;20728;-74
2023/05/20 06:15:50;;;;;;;19.00;17.95;;;20.80;99.90;;;;;;4972865;28;20580;-73
2023/05/20 06:18:16;;;;;;;18.88;17.45;;;20.40;99.90;;;;;;4972459;28;20217;-73
2023/05/20 06:20:42;;;;;;;10.68;9.95;;;20.10;99.90;;;;;;4990928;28;20689;-73
2023/05/20 06:23:08;;;;;;;7.85;7.35;;;19.90;99.90;;;;;;4996009;28;20679;-73
2023/05/20 06:25:33;;;;;;;13.80;13.00;;;19.60;99.90;;;;;;4992240;28;20211;-73
2023/05/20 06:27:59;;;;;;;29.42;27.48;;;19.30;99.90;;;;;;4991390;28;20212;-73
2023/05/20 06:30:25;;;;;;;36.72;34.72;;;18.80;99.90;;;;;;4991945;28;20557;-74
2023/05/20 06:32:50;;;;;;;11.27;10.38;;;18.70;99.90;;;;;;4992220;28;20329;-72
2023/05/20 06:35:16;;;;;;;10.35;9.65;;;18.50;99.90;;;;;;4991624;28;20585;-73
2023/05/20 06:37:42;;;;;;;17.08;15.93;;;18.20;99.90;;;;;;4985606;28;20187;-74
2023/05/20 06:40:09;;;;;;;24.47;22.97;;;18.00;99.90;;;;;;4972687;28;20180;-72
2023/05/20 06:42:35;;;;;;;39.70;37.57;;;17.90;99.90;;;;;;4981638;28;20192;-73
2023/05/20 06:45:01;;;;;;;50.80;47.97;;;17.70;99.90;;;;;;4991772;28;20219;-72
2023/05/20 06:47:26;;;;;;;76.17;72.30;;;17.40;99.90;;;;;;5010602;28;20193;-72
2023/05/20 06:49:52;;;;;;;72.83;69.03;;;17.40;99.90;;;;;;4993687;28;20323;-73
2023/05/20 06:52:18;;;;;;;14.40;13.43;;;17.20;99.90;;;;;;5011392;28;20215;-73
2023/05/20 06:54:44;;;;;;;9.90;9.17;;;16.90;99.90;;;;;;5011342;28;20188;-73
2023/05/20 06:57:09;;;;;;;8.00;7.40;;;16.90;99.90;;;;;;4984992;28;20188;-73
2023/05/20 06:59:36;;;;;;;8.40;7.80;;;17.00;99.90;;;;;;4971051;28;20184;-72
2023/05/20 07:02:03;;;;;;;8.70;8.10;;;17.10;99.90;;;;;;4952337;28;20268;-73
2023/05/20 07:04:28;;;;;;;8.27;7.67;;;17.20;99.90;;;;;;4954519;28;20212;-72
2023/05/20 07:06:54;;;;;;;7.90;7.20;;;17.10;99.90;;;;;;4972158;28;20189;-73
2023/05/20 07:09:20;;;;;;;8.40;7.80;;;17.20;99.90;;;;;;4972581;28;20268;-73
2023/05/20 07:11:46;;;;;;;8.40;7.60;;;17.30;99.90;;;;;;4955867;28;20207;-73
2023/05/20 07:14:13;;;;;;;10.63;9.97;;;17.40;99.90;;;;;;4971968;28;20216;-73
2023/05/20 07:16:39;;;;;;;34.37;32.37;;;17.90;99.90;;;;;;4972255;28;20188;-73
2023/05/20 07:19:04;;;;;;;33.47;31.48;;;18.70;99.90;;;;;;4954546;28;20644;-74
2023/05/20 07:21:30;;;;;;;26.70;25.23;;;18.90;99.90;;;;;;4972259;28;20643;-74
2023/05/20 07:23:56;;;;;;;50.63;47.80;;;18.50;99.90;;;;;;4957204;28;20576;-73
2023/05/20 07:26:22;;;;;;;46.92;44.35;;;18.30;99.90;;;;;;4991524;28;20192;-74
2023/05/20 07:28:47;;;;;;;38.67;36.47;;;18.30;99.90;;;;;;4991148;28;20777;-72
2023/05/20 07:31:13;;;;;;;41.20;39.00;;;18.30;99.90;;;;;;4991396;28;20600;-73
2023/05/20 07:33:39;;;;;;;25.83;24.43;;;18.30;99.90;;;;;;4991395;28;20684;-73
2023/05/20 07:36:05;;;;;;;11.60;10.90;;;18.70;99.90;;;;;;4992125;28;20573;-73
2023/05/20 07:38:31;;;;;;;8.55;7.88;;;18.90;99.90;;;;;;4985755;28;20177;-73
2023/05/20 07:40:57;;;;;;;8.40;7.63;;;19.40;99.90;;;;;;4972261;28;20188;-72
2023/05/20 07:43:23;;;;;;;9.50;8.90;;;19.60;99.90;;;;;;4971895;28;20185;-72
2023/05/20 07:45:49;;;;;;;13.00;12.18;;;20.00;99.90;;;;;;4972006;28;20185;-73
2023/05/20 07:48:15;;;;;;;13.05;12.25;;;19.80;99.90;;;;;;4971798;28;20196;-72
2023/05/20 07:50:41;;;;;;;9.47;8.77;;;19.50;99.90;;;;;;4971022;28;20217;-72
2023/05/20 07:53:06;;;;;;;10.63;9.73;;;19.40;99.90;;;;;;4992910;28;20732;-73
2023/05/20 07:55:33;;;;;;;12.60;11.70;;;19.60;99.90;;;;;;4995361;28;20581;-73
2023/05/20 07:58:00;;;;;;;9.30;8.50;;;19.60;99.90;;;;;;5004860;28;20207;-73
2023/05/20 08:00:25;;;;;;;13.07;12.20;;;19.50;99.90;;;;;;4992976;28;20222;-72
2023/05/20 08:02:51;;;;;;;28.25;26.52;;;20.10;99.90;;;;;;4999567;28;20200;-72
2023/05/20 08:05:17;;;;;;;22.60;21.30;;;20.60;99.90;;;;;;4990588;28;20239;-72
2023/05/20 08:07:43;;;;;;;14.40;13.45;;;20.70;99.90;;;;;;4990890;28;20517;-71
2023/05/20 08:10:09;;;;;;;10.20;9.57;;;21.50;99.90;;;;;;4987644;28;20239;-71
2023/05/20 08:12:34;;;;;;;16.55;15.52;;;22.20;99.90;;;;;;5010533;28;20211;-76
2023/05/20 08:15:00;;;;;;;14.75;13.93;;;22.30;99.90;;;;;;4996895;28;20655;-77
2023/05/20 08:17:26;;;;;;;19.08;18.05;;;22.50;99.90;;;;;;5001538;28;20211;-77
2023/05/20 08:19:51;;;;;;;29.95;28.38;;;22.70;99.90;;;;;;4994930;28;20196;-76
2023/05/20 08:22:17;;;;;;;19.98;18.30;;;22.20;99.90;;;;;;4999155;28;20180;-77
2023/05/20 08:24:43;;;;;;;25.08;23.75;;;21.80;99.90;;;;;;4994419;28;20215;-77
2023/05/20 08:27:09;;;;;;;18.67;17.45;;;22.00;99.90;;;;;;4994832;28;20569;-75
2023/05/20 08:29:35;;;;;;;18.42;17.33;;;21.60;99.90;;;;;;4994227;28;20188;-75
2023/05/20 08:32:00;;;;;;;16.17;15.18;;;21.60;99.90;;;;;;4979213;28;20587;-77
2023/05/20 08:34:26;;;;;;;19.60;18.48;;;21.70;99.90;;;;;;4975185;28;20205;-75
2023/05/20 08:36:52;;;;;;;20.25;18.88;;;22.00;99.90;;;;;;4974247;28;20224;-76
2023/05/20 08:39:18;;;;;;;19.80;18.70;;;22.40;99.90;;;;;;4974988;28;20272;-76
2023/05/20 08:41:46;;;;;;;19.05;17.95;;;22.80;99.90;;;;;;4974641;28;20220;-76
2023/05/20 08:44:12;;;;;;;31.65;29.95;;;22.80;99.90;;;;;;4974175;28;20256;-78
2023/05/20 08:46:39;;;;;;;25.65;24.27;;;22.10;99.90;;;;;;5005968;28;20261;-76
2023/05/20 08:49:05;;;;;;;16.45;15.20;;;21.70;99.90;;;;;;5013320;28;20187;-75
2023/05/20 08:51:32;;;;;;;18.20;17.10;;;21.20;99.90;;;;;;5013105;28;20215;-77
2023/05/20 08:53:59;;;;;;;16.42;15.52;;;21.30;99.90;;;;;;5013386;28;20203;-75
2023/05/20 08:56:26;;;;;;;24.65;23.25;;;21.90;99.90;;;;;;4995932;28;20203;-75
2023/05/20 08:58:52;;;;;;;18.27;17.13;;;21.70;99.90;;;;;;4992235;28;20233;-74
2023/05/20 09:01:22;;;;;;;18.08;16.90;;;21.70;99.90;;;;;;4993469;28;20583;-75
2023/05/20 09:03:48;;;;;;;17.02;15.70;;;21.50;99.90;;;;;;4993559;28;20262;-74
2023/05/20 09:06:16;;;;;;;21.73;20.52;;;22.00;99.90;;;;;;4976259;28;20176;-76
2023/05/20 09:08:49;;;;;;;28.02;26.52;;;22.10;99.90;;;;;;4993219;28;20180;-76
2023/05/20 09:11:15;;;;;;;32.55;30.80;;;22.50;99.90;;;;;;4993713;28;20180;-76
2023/05/20 09:13:40;;;;;;;22.27;20.88;;;22.10;99.90;;;;;;4992561;23;20568;31
2023/05/20 09:16:09;;;;;;;16.38;15.38;;;21.40;99.90;;;;;;4952287;29;20213;-72
2023/05/20 09:18:38;;;;;;;18.60;17.20;;;21.30;99.90;;;;;;4954068;29;20712;-73
2023/05/20 09:21:08;;;;;;;17.88;16.58;;;21.60;99.90;;;;;;4954823;29;20189;-68
2023/05/20 09:23:37;;;;;;;18.40;17.00;;;21.50;99.90;;;;;;4953622;29;20284;-69
2023/05/20 09:26:03;;;;;;;22.35;21.05;;;21.60;99.90;;;;;;4934935;29;20205;-69
2023/05/20 09:28:29;;;;;;;35.38;33.25;;;22.50;99.90;;;;;;4953669;29;20209;-70
2023/05/20 09:30:58;;;;;;;11.57;10.77;;;23.00;99.90;;;;;;4954318;29;20225;-75
2023/05/20 09:33:28;;;;;;;10.98;10.25;;;23.20;99.90;;;;;;4954960;29;20245;-74
2023/05/20 09:36:07;;;;;;;15.27;14.38;;;22.90;99.90;;;;;;4954968;29;20209;-71
2023/05/20 09:38:38;;;;;;;14.10;13.35;;;22.70;99.90;;;;;;4954374;29;20220;-71
2023/05/20 09:41:10;;;;;;;8.95;8.25;;;22.90;99.90;;;;;;4937602;29;20190;-71
2023/05/20 09:43:40;;;;;;;6.65;6.20;;;23.20;99.90;;;;;;4954553;29;20220;-72
2023/05/20 09:46:07;;;;;;;7.38;6.75;;;23.40;99.90;;;;;;4954587;29;20198;-72
2023/05/20 09:48:36;;;;;;;7.40;6.90;;;23.40;99.90;;;;;;4954772;29;20658;-71
2023/05/20 09:51:04;;;;;;;11.15;10.15;;;23.60;99.90;;;;;;4937718;29;20186;-70
2023/05/20 09:53:30;;;;;;;12.80;11.93;;;24.10;99.80;;;;;;4955059;29;20268;-71
2023/05/20 09:55:56;;;;;;;10.30;9.70;;;23.60;99.90;;;;;;4953939;28;20262;-71
2023/05/20 09:58:24;;;;;;;14.25;13.35;;;23.70;99.90;;;;;;4953705;29;20192;-71
2023/05/20 10:00:50;;;;;;;14.90;14.00;;;24.10;99.60;;;;;;4937154;29;20187;-70
2023/05/20 10:03:17;;;;;;;13.82;13.00;;;24.50;98.60;;;;;;4954298;29;20229;-71
2023/05/20 10:05:54;;;;;;;8.77;8.25;;;24.30;98.80;;;;;;4954111;29;20205;-71
2023/05/20 10:08:41;;;;;;;7.03;6.53;;;24.90;97.70;;;;;;4936559;29;20189;-71
2023/05/20 10:11:25;;;;;;;6.47;6.03;;;25.10;97.70;;;;;;4953664;29;20188;-71
2023/05/20 10:14:09;;;;;;;7.47;6.90;;;25.20;96.10;;;;;;4953763;28;20205;-71
2023/05/20 10:16:55;;;;;;;9.90;9.23;;;23.90;97.20;;;;;;4936696;29;20177;-71
2023/05/20 10:19:29;;;;;;;9.90;9.30;;;24.00;97.40;;;;;;4936723;29;20190;-71
2023/05/20 10:22:00;;;;;;;14.05;12.98;;;24.10;97.90;;;;;;4953750;29;20216;-71
2023/05/20 10:24:34;;;;;;;10.25;9.55;;;24.00;97.60;;;;;;4953584;28;20242;-70
2023/05/20 10:27:08;;;;;;;7.65;7.15;;;24.20;97.40;;;;;;4953297;29;20243;-72
2023/05/20 10:29:54;;;;;;;7.38;5.78;;;24.70;95.80;;;;;;4953698;29;20551;-70
2023/05/20 10:32:34;;;;;;;5.93;5.53;;;24.70;96.00;;;;;;4953398;29;20213;-71
2023/05/20 10:35:07;;;;;;;6.85;6.45;;;24.90;95.40;;;;;;4953860;28;20683;-71
2023/05/20 10:37:41;;;;;;;9.52;8.93;;;25.00;94.70;;;;;;4935848;29;20182;-71
2023/05/20 10:40:12;;;;;;;8.82;8.05;;;24.80;94.30;;;;;;4953808;29;20240;-71
2023/05/20 10:42:38;;;;;;;9.77;9.15;;;24.70;95.00;;;;;;4953866;29;20185;-71
2023/05/20 10:45:05;;;;;;;10.07;9.48;;;25.30;94.50;;;;;;4953724;29;20205;-71
2023/05/20 10:47:31;;;;;;;15.82;14.93;;;25.30;93.80;;;;;;4953233;29;20197;-70
2023/05/20 10:49:57;;;;;;;23.77;22.45;;;25.80;93.50;;;;;;4953380;29;20232;-71
2023/05/20 10:52:24;;;;;;;39.90;37.78;;;25.80;93.30;;;;;;4953476;29;20232;-70
2023/05/20 10:54:52;;;;;;;67.75;63.88;;;26.50;92.60;;;;;;4952998;28;20690;-71
2023/05/20 10:57:18;;;;;;;56.05;53.20;;;27.30;92.30;;;;;;4953065;29;20178;-71
2023/05/20 10:59:44;;;;;;;48.33;45.67;;;27.70;90.00;;;;;;4953324;29;20174;-71
2023/05/20 11:02:12;;;;;;;45.67;43.38;;;26.90;89.20;;;;;;4953313;29;20189;-71
2023/05/20 11:04:38;;;;;;;64.07;60.67;;;26.60;89.00;;;;;;4953075;28;20198;-71
2023/05/20 11:07:03;;;;;;;66.97;63.50;;;25.60;90.40;;;;;;4953171;29;20587;-70
2023/05/20 11:09:30;;;;;;;64.65;61.28;;;25.60;90.70;;;;;;4952952;29;20189;-70
2023/05/20 11:11:57;;;;;;;68.43;64.80;;;26.00;90.10;;;;;;4953149;29;20220;-71
2023/05/20 11:14:22;;;;;;;56.42;53.08;;;25.90;90.10;;;;;;4952946;29;20749;-71
2023/05/20 11:16:53;;;;;;;56.30;53.25;;;25.60;91.00;;;;;;4936320;29;20185;-71
2023/05/20 11:19:18;;;;;;;59.45;56.40;;;25.10;91.40;;;;;;4953293;29;20271;-71
2023/05/20 11:21:45;;;;;;;62.40;59.35;;;25.40;90.60;;;;;;4936071;29;20611;-71
2023/05/20 11:24:11;;;;;;;59.95;56.75;;;25.70;90.30;;;;;;4952792;28;20694;-70
2023/05/20 11:26:38;;;;;;;60.28;57.03;;;26.10;90.00;;;;;;4953004;29;20189;-71
2023/05/20 11:29:04;;;;;;;55.08;52.35;;;26.30;88.20;;;;;;4936051;29;20542;-71
2023/05/20 11:31:31;;;;;;;40.58;38.25;;;26.30;87.70;;;;;;4953071;29;20269;-71
2023/05/20 11:34:03;;;;;;;40.13;38.03;;;26.50;86.40;;;;;;4953077;28;20633;-70
2023/05/20 11:36:29;;;;;;;25.92;24.65;;;26.80;86.80;;;;;;4953153;29;20189;-70
2023/05/20 11:38:59;;;;;;;22.10;20.88;;;27.20;84.30;;;;;;4952584;29;20174;-70
2023/05/20 11:41:26;;;;;;;38.55;36.22;;;26.60;84.60;;;;;;4936004;29;20178;-71
2023/05/20 11:43:59;;;;;;;45.10;42.83;;;26.00;85.80;;;;;;4953142;29;20221;-72
2023/05/20 11:46:26;;;;;;;53.72;51.03;;;26.00;85.50;;;;;;4953013;29;20186;-71
2023/05/20 11:48:55;;;;;;;59.85;56.75;;;25.70;86.40;;;;;;4954769;28;20186;-72
2023/05/20 11:51:28;;;;;;;59.03;55.92;;;25.80;88.00;;;;;;4956731;29;20186;-72
2023/05/20 11:54:02;;;;;;;19.70;18.55;;;26.60;85.60;;;;;;4939204;28;20184;-72
2023/05/20 11:56:33;;;;;;;5.80;5.40;;;27.80;83.80;;;;;;4956724;29;20192;-72
2023/05/20 11:58:59;;;;;;;6.50;5.40;;;28.10;79.90;;;;;;4956184;29;20665;-71
2023/05/20 12:01:29;;;;;;;5.50;5.20;;;27.60;82.30;;;;;;4939514;29;20197;-71
2023/05/20 12:03:55;;;;;;;6.22;5.68;;;27.30;81.40;;;;;;4956809;29;20887;-71
2023/05/20 12:06:21;;;;;;;9.38;8.77;;;26.60;81.20;;;;;;4939092;29;20418;-72
2023/05/20 12:08:46;;;;;;;27.00;25.45;;;26.10;82.60;;;;;;4955903;29;20192;-71
2023/05/20 12:11:12;;;;;;;50.00;47.30;;;25.60;84.00;;;;;;4956256;29;20177;-73
2023/05/20 12:13:39;;;;;;;65.32;62.05;;;25.40;85.70;;;;;;4956553;29;20186;-72
2023/05/20 12:16:05;;;;;;;60.60;57.50;;;25.30;85.60;;;;;;4939514;29;20654;-71
2023/05/20 12:18:31;;;;;;;71.32;67.75;;;25.00;87.60;;;;;;4956370;29;20224;-71
2023/05/20 12:20:58;;;;;;;66.82;63.42;;;24.80;86.00;;;;;;4939714;29;20178;-72
2023/05/20 12:23:24;;;;;;;61.85;58.78;;;25.00;85.70;;;;;;4957083;29;20256;-71
2023/05/20 12:25:50;;;;;;;69.53;65.50;;;25.40;85.40;;;;;;4956882;28;20206;-71
2023/05/20 12:28:16;;;;;;;67.22;63.90;;;25.70;85.90;;;;;;4955279;28;20186;-70
2023/05/20 12:30:42;;;;;;;57.78;54.75;;;25.60;85.20;;;;;;4956192;29;20595;-71
2023/05/20 12:33:08;;;;;;;57.47;54.55;;;25.60;83.70;;;;;;4939175;29;20217;-71
2023/05/20 12:35:39;;;;;;;65.82;62.55;;;25.50;84.90;;;;;;4955613;28;20787;-71
2023/05/20 12:38:06;;;;;;;52.20;49.45;;;25.30;86.00;;;;;;4938455;29;20193;-72
2023/05/20 12:40:32;;;;;;;67.05;63.78;;;24.90;88.30;;;;;;4938632;29;20185;-71
2023/05/20 12:43:02;;;;;;;37.15;35.15;;;24.60;87.40;;;;;;4938967;29;20188;-72
2023/05/20 12:45:28;;;;;;;42.45;40.17;;;24.30;89.40;;;;;;4939000;29;20305;-71
2023/05/20 12:47:55;;;;;;;43.50;41.22;;;24.60;89.10;;;;;;4955617;29;20269;-72
2023/05/20 12:50:22;;;;;;;45.92;43.40;;;24.70;88.90;;;;;;4955262;29;20197;-70
2023/05/20 12:52:47;;;;;;;46.33;43.65;;;24.90;87.60;;;;;;4938386;29;20284;-70
2023/05/20 12:55:13;;;;;;;58.05;55.15;;;25.40;87.60;;;;;;4938246;29;20237;-71
2023/05/20 12:57:40;;;;;;;38.33;36.33;;;26.60;86.90;;;;;;4955146;29;20181;-72
2023/05/20 13:00:07;;;;;;;15.52;14.70;;;27.60;81.90;;;;;;4955496;28;20552;-72
2023/05/20 13:02:33;;;;;;;6.13;5.72;;;27.60;80.60;;;;;;4955458;29;20182;-71
2023/05/20 13:04:59;;;;;;;6.88;6.25;;;27.70;79.00;;;;;;4937926;29;20201;-72
2023/05/20 13:07:25;;;;;;;6.80;6.30;;;28.00;78.20;;;;;;4955053;29;20182;-71
2023/05/20 13:09:51;;;;;;;6.88;6.38;;;28.00;79.10;;;;;;4955191;29;20200;-72
2023/05/20 13:12:18;;;;;;;5.22;4.85;;;28.70;77.10;;;;;;4938106;29;20583;-73
2023/05/20 13:14:44;;;;;;;6.88;6.30;;;28.20;76.70;;;;;;4955026;28;20307;-72
2023/05/20 13:17:11;;;;;;;5.57;5.18;;;28.20;78.60;;;;;;4954919;29;20235;-70
2023/05/20 13:19:37;;;;;;;5.55;5.15;;;27.70;76.70;;;;;;4955158;29;20208;-71
2023/05/20 13:22:03;;;;;;;6.80;6.20;;;27.60;76.40;;;;;;4955177;29;20209;-72
2023/05/20 13:24:29;;;;;;;6.63;6.22;;;27.40;78.40;;;;;;4954994;29;20205;-71
2023/05/20 13:26:54;;;;;;;5.85;5.50;;;27.40;77.30;;;;;;4954691;29;20232;-72
2023/05/20 13:29:20;;;;;;;7.22;6.88;;;26.60;77.60;;;;;;4954499;29;20182;-72
2023/05/20 13:31:47;;;;;;;6.88;6.47;;;25.80;79.10;;;;;;4951856;29;20218;-68
2023/05/20 13:34:13;;;;;;;7.13;6.63;;;26.70;77.70;;;;;;4940622;28;20206;-68
2023/05/20 13:36:39;;;;;;;5.35;5.03;;;28.10;75.00;;;;;;4935390;29;20210;-68
2023/05/20 13:39:05;;;;;;;5.68;5.28;;;28.00;73.70;;;;;;4947432;29;20192;-68
2023/05/20 13:41:31;;;;;;;6.68;6.20;;;27.80;75.80;;;;;;4954088;29;20689;-70
2023/05/20 13:43:57;;;;;;;7.13;6.63;;;27.70;75.70;;;;;;4953904;29;20204;-69
2023/05/20 13:46:23;;;;;;;6.63;6.00;;;27.20;76.70;;;;;;4953326;29;20185;-68
2023/05/20 13:48:49;;;;;;;10.82;10.23;;;26.40;79.00;;;;;;4953519;29;20188;-68
2023/05/20 13:51:15;;;;;;;46.97;44.08;;;25.70;80.30;;;;;;4941600;29;20258;-67
2023/05/20 13:53:41;;;;;;;54.72;51.95;;;25.30;81.80;;;;;;4933194;29;20269;-69
2023/05/20 13:56:09;;;;;;;65.25;61.90;;;25.20;82.20;;;;;;4934178;29;20218;-68
2023/05/20 13:58:36;;;;;;;69.80;66.13;;;25.10;82.40;;;;;;4942826;29;20186;-69
2023/05/20 14:01:03;;;;;;;61.85;58.70;;;25.10;82.90;;;;;;4954228;29;20185;-71
2023/05/20 14:03:33;;;;;;;62.80;59.60;;;25.20;82.10;;;;;;4953936;29;20197;-71
2023/05/20 14:05:59;;;;;;;64.15;60.92;;;25.40;82.90;;;;;;4936723;29;20209;-69
2023/05/20 14:08:26;;;;;;;43.33;40.95;;;25.70;82.10;;;;;;4936240;29;20197;-72
2023/05/20 14:10:53;;;;;;;11.50;10.77;;;26.40;79.30;;;;;;4953723;28;20189;-72
2023/05/20 14:13:22;;;;;;;7.15;6.65;;;27.00;76.30;;;;;;4953726;29;20233;-73
2023/05/20 14:15:49;;;;;;;7.43;6.82;;;27.00;77.10;;;;;;4936671;29;20264;-72
2023/05/20 14:18:16;;;;;;;12.57;9.95;;;27.10;77.60;;;;;;4953084;29;20224;-70
2023/05/20 14:20:42;;;;;;;6.47;5.90;;;28.00;75.80;;;;;;4953599;29;20197;-71
2023/05/20 14:23:08;;;;;;;5.63;5.32;;;28.70;73.00;;;;;;4935931;29;20197;-71
2023/05/20 14:25:34;;;;;;;5.15;4.80;;;29.00;71.80;;;;;;4952853;29;20214;-72
2023/05/20 14:27:59;;;;;;;4.80;4.50;;;28.50;70.80;;;;;;4953401;29;20185;-70
2023/05/20 14:30:25;;;;;;;5.05;4.72;;;27.90;72.50;;;;;;4953746;29;20562;-71
2023/05/20 14:32:51;;;;;;;5.57;5.18;;;27.60;72.30;;;;;;4953349;29;20213;-70
2023/05/20 14:35:17;;;;;;;5.85;5.47;;;27.70;72.60;;;;;;4953534;28;20216;-71
2023/05/20 14:37:43;;;;;;;5.57;5.28;;;27.50;72.70;;;;;;4953172;29;20543;-71
2023/05/20 14:40:10;;;;;;;5.55;5.05;;;28.60;72.30;;;;;;4953657;29;20189;-72
2023/05/20 14:42:36;;;;;;;4.95;4.65;;;29.10;69.50;;;;;;4953474;29;20185;-73
2023/05/20 14:45:02;;;;;;;6.07;5.70;;;27.90;71.40;;;;;;4935992;29;20220;-69
2023/05/20 14:47:28;;;;;;;6.72;6.32;;;26.80;75.10;;;;;;4953146;29;20189;-71
2023/05/20 14:49:55;;;;;;;5.80;5.30;;;26.80;74.70;;;;;;4952319;29;20240;-70
2023/05/20 14:52:21;;;;;;;6.32;5.93;;;27.20;72.80;;;;;;4936300;29;20241;-72
2023/05/20 14:54:49;;;;;;;5.78;5.47;;;27.50;72.50;;;;;;4936187;29;20197;-71
2023/05/20 14:57:14;;;;;;;5.40;5.00;;;27.70;71.10;;;;;;4952864;29;20208;-71
2023/05/20 14:59:41;;;;;;;6.57;6.20;;;27.60;72.10;;;;;;4953370;29;20217;-71
2023/05/20 15:02:07;;;;;;;5.18;4.88;;;27.40;73.00;;;;;;4936314;29;20650;-71
2023/05/20 15:04:33;;;;;;;5.63;4.97;;;28.00;72.50;;;;;;4953142;28;20212;-71
2023/05/20 15:06:59;;;;;;;5.65;5.28;;;28.40;73.10;;;;;;4953108;29;20561;-70
2023/05/20 15:09:25;;;;;;;6.45;6.03;;;29.20;70.30;;;;;;4936396;29;20727;-71
2023/05/20 15:11:51;;;;;;;5.75;5.28;;;29.60;68.30;;;;;;4953141;29;20304;-70
2023/05/20 15:14:17;;;;;;;9.55;8.57;;;28.70;70.00;;;;;;4979372;23;20206;-73
2023/05/20 15:16:43;;;;;;;5.95;5.55;;;27.90;72.80;;;;;;5011653;28;20557;-73
2023/05/20 15:19:10;;;;;;;6.57;5.25;;;27.70;72.30;;;;;;4993391;28;20180;-73
2023/05/20 15:21:36;;;;;;;6.03;5.63;;;27.50;73.60;;;;;;5011607;28;20182;-73
2023/05/20 15:24:02;;;;;;;6.57;6.18;;;27.60;73.70;;;;;;5013650;28;20183;-73
2023/05/20 15:26:29;;;;;;;7.47;6.95;;;27.20;74.50;;;;;;4995911;28;20184;-72
2023/05/20 15:28:55;;;;;;;8.10;7.50;;;26.80;75.70;;;;;;4978130;28;20195;-73
2023/05/20 15:31:22;;;;;;;7.53;7.03;;;26.40;77.30;;;;;;4995834;28;20180;-74
2023/05/20 15:33:48;;;;;;;8.38;7.70;;;26.30;76.80;;;;;;4995005;28;20661;-73